CheckWX is a tool to help pilots better visualize weather data.  It is not intended as a substitute for an official pre-flight weather briefing.

03:20:48 UTC

KJKL METAR
Julian Carroll Airport
Jackson, Kentucky, USA
Current

28 mins ago

KJKL 260253Z AUTO 00000KT 10SM CLR 24/17 A3013 RMK AO2 SLP187 T02390172 53001
Observed
May-26 @ 02:53 UTC
Visibility
10 SM
Flight Rules
VFR
Cloud Levels
  • Clear skies
Temperature
24°C / 75°F
Dewpoint
17°C / 63°F
Humidity
65%
Altimeter
30.13" Hg
Pressure
1020.32 hPa
Previous

1 hour ago

KJKL 260153Z AUTO 00000KT 10SM CLR 24/17 A3012 RMK AO2 SLP185 T02440172
Observed
May-26 @ 01:53 UTC
Visibility
10 SM
Flight Rules
VFR
Cloud Levels
  • Clear skies
Temperature
24°C / 75°F
Dewpoint
17°C / 63°F
Humidity
65%
Altimeter
30.12" Hg
Pressure
1020.02 hPa
Previous

2 hours ago

KJKL 260053Z AUTO 00000KT 10SM CLR 26/17 A3012 RMK AO2 SLP185 T02560172
Observed
May-26 @ 00:53 UTC
Visibility
10 SM
Flight Rules
VFR
Cloud Levels
  • Clear skies
Temperature
26°C / 79°F
Dewpoint
17°C / 63°F
Humidity
58%
Altimeter
30.12" Hg
Pressure
1020.02 hPa